sensor_id;sensor_type;location;lat;lon;timestamp;P1;durP1;ratioP1;P2;durP2;ratioP2
84523;SDS011;74765;44.538;18.668;2024-02-23T00:01:59;89.30;;;39.40;;
84523;SDS011;74765;44.538;18.668;2024-02-23T00:04:25;79.53;;;37.88;;
84523;SDS011;74765;44.538;18.668;2024-02-23T00:06:51;86.35;;;37.30;;
84523;SDS011;74765;44.538;18.668;2024-02-23T00:09:17;84.20;;;36.50;;
84523;SDS011;74765;44.538;18.668;2024-02-23T00:11:42;85.68;;;37.90;;
84523;SDS011;74765;44.538;18.668;2024-02-23T00:14:12;81.97;;;35.58;;
84523;SDS011;74765;44.538;18.668;2024-02-23T00:16:39;86.38;;;36.17;;
84523;SDS011;74765;44.538;18.668;2024-02-23T00:19:07;79.72;;;36.35;;
84523;SDS011;74765;44.538;18.668;2024-02-23T00:21:35;77.68;;;34.70;;
84523;SDS011;74765;44.538;18.668;2024-02-23T00:24:02;81.50;;;36.47;;
84523;SDS011;74765;44.538;18.668;2024-02-23T00:26:28;91.30;;;37.40;;
84523;SDS011;74765;44.538;18.668;2024-02-23T00:28:55;75.50;;;34.50;;
84523;SDS011;74765;44.538;18.668;2024-02-23T00:31:21;83.07;;;35.22;;
84523;SDS011;74765;44.538;18.668;2024-02-23T00:33:47;85.35;;;37.17;;
84523;SDS011;74765;44.538;18.668;2024-02-23T00:36:13;93.05;;;39.58;;
84523;SDS011;74765;44.538;18.668;2024-02-23T00:38:39;79.65;;;34.72;;
84523;SDS011;74765;44.538;18.668;2024-02-23T00:41:05;77.80;;;34.47;;
84523;SDS011;74765;44.538;18.668;2024-02-23T00:43:38;79.28;;;34.47;;
84523;SDS011;74765;44.538;18.668;2024-02-23T00:46:04;70.93;;;31.52;;
84523;SDS011;74765;44.538;18.668;2024-02-23T00:48:30;74.97;;;32.20;;
84523;SDS011;74765;44.538;18.668;2024-02-23T00:50:56;79.32;;;34.22;;
84523;SDS011;74765;44.538;18.668;2024-02-23T00:53:22;73.10;;;33.92;;
84523;SDS011;74765;44.538;18.668;2024-02-23T00:55:48;64.82;;;31.27;;
84523;SDS011;74765;44.538;18.668;2024-02-23T00:58:14;74.10;;;34.13;;
84523;SDS011;74765;44.538;18.668;2024-02-23T01:00:41;71.53;;;32.95;;
84523;SDS011;74765;44.538;18.668;2024-02-23T01:03:07;73.45;;;34.40;;
84523;SDS011;74765;44.538;18.668;2024-02-23T01:05:33;66.35;;;30.95;;
84523;SDS011;74765;44.538;18.668;2024-02-23T01:07:59;77.22;;;36.78;;
84523;SDS011;74765;44.538;18.668;2024-02-23T01:10:25;74.15;;;32.63;;
84523;SDS011;74765;44.538;18.668;2024-02-23T01:12:50;81.40;;;36.47;;
84523;SDS011;74765;44.538;18.668;2024-02-23T01:15:16;79.90;;;36.35;;
84523;SDS011;74765;44.538;18.668;2024-02-23T01:17:42;79.15;;;36.45;;
84523;SDS011;74765;44.538;18.668;2024-02-23T01:20:08;72.80;;;35.60;;
84523;SDS011;74765;44.538;18.668;2024-02-23T01:22:34;70.55;;;33.95;;
84523;SDS011;74765;44.538;18.668;2024-02-23T01:25:00;72.75;;;34.75;;
84523;SDS011;74765;44.538;18.668;2024-02-23T01:27:26;75.88;;;36.53;;
84523;SDS011;74765;44.538;18.668;2024-02-23T01:29:52;75.55;;;35.20;;
84523;SDS011;74765;44.538;18.668;2024-02-23T01:32:18;69.68;;;33.53;;
84523;SDS011;74765;44.538;18.668;2024-02-23T01:34:43;80.32;;;36.72;;
84523;SDS011;74765;44.538;18.668;2024-02-23T01:37:09;73.95;;;34.92;;
84523;SDS011;74765;44.538;18.668;2024-02-23T01:39:36;70.82;;;33.08;;
84523;SDS011;74765;44.538;18.668;2024-02-23T01:42:02;70.53;;;33.53;;
84523;SDS011;74765;44.538;18.668;2024-02-23T01:44:28;71.70;;;32.13;;
84523;SDS011;74765;44.538;18.668;2024-02-23T01:46:57;66.28;;;34.35;;
84523;SDS011;74765;44.538;18.668;2024-02-23T01:49:23;80.20;;;36.35;;
84523;SDS011;74765;44.538;18.668;2024-02-23T01:51:57;68.57;;;34.00;;
84523;SDS011;74765;44.538;18.668;2024-02-23T01:54:24;76.10;;;35.47;;
84523;SDS011;74765;44.538;18.668;2024-02-23T01:56:50;65.38;;;32.60;;
84523;SDS011;74765;44.538;18.668;2024-02-23T01:59:17;68.07;;;33.30;;
84523;SDS011;74765;44.538;18.668;2024-02-23T02:01:45;65.40;;;31.33;;
84523;SDS011;74765;44.538;18.668;2024-02-23T02:04:11;61.10;;;29.85;;
84523;SDS011;74765;44.538;18.668;2024-02-23T02:06:37;62.70;;;30.85;;
84523;SDS011;74765;44.538;18.668;2024-02-23T02:09:03;67.13;;;32.85;;
84523;SDS011;74765;44.538;18.668;2024-02-23T02:11:29;69.70;;;33.03;;
84523;SDS011;74765;44.538;18.668;2024-02-23T02:13:55;70.22;;;34.15;;
84523;SDS011;74765;44.538;18.668;2024-02-23T02:16:20;65.72;;;32.67;;
84523;SDS011;74765;44.538;18.668;2024-02-23T02:18:46;67.55;;;31.30;;
84523;SDS011;74765;44.538;18.668;2024-02-23T02:21:12;65.88;;;31.55;;
84523;SDS011;74765;44.538;18.668;2024-02-23T02:23:38;66.07;;;32.17;;
84523;SDS011;74765;44.538;18.668;2024-02-23T02:26:04;71.28;;;34.53;;
84523;SDS011;74765;44.538;18.668;2024-02-23T02:28:31;66.63;;;31.85;;
84523;SDS011;74765;44.538;18.668;2024-02-23T02:30:57;60.47;;;30.50;;
84523;SDS011;74765;44.538;18.668;2024-02-23T02:33:23;63.83;;;30.42;;
84523;SDS011;74765;44.538;18.668;2024-02-23T02:35:49;64.30;;;30.83;;
84523;SDS011;74765;44.538;18.668;2024-02-23T02:38:15;63.08;;;31.00;;
84523;SDS011;74765;44.538;18.668;2024-02-23T02:40:41;64.40;;;30.58;;
84523;SDS011;74765;44.538;18.668;2024-02-23T02:43:07;63.05;;;30.63;;
84523;SDS011;74765;44.538;18.668;2024-02-23T02:45:33;62.00;;;32.50;;
84523;SDS011;74765;44.538;18.668;2024-02-23T02:47:59;62.75;;;30.27;;
84523;SDS011;74765;44.538;18.668;2024-02-23T02:50:26;57.13;;;29.60;;
84523;SDS011;74765;44.538;18.668;2024-02-23T02:52:52;50.08;;;25.75;;
84523;SDS011;74765;44.538;18.668;2024-02-23T02:55:17;56.47;;;27.75;;
84523;SDS011;74765;44.538;18.668;2024-02-23T02:57:44;54.83;;;27.90;;
84523;SDS011;74765;44.538;18.668;2024-02-23T03:00:10;54.42;;;27.05;;
84523;SDS011;74765;44.538;18.668;2024-02-23T03:02:37;53.03;;;27.48;;
84523;SDS011;74765;44.538;18.668;2024-02-23T03:05:03;52.50;;;26.95;;
84523;SDS011;74765;44.538;18.668;2024-02-23T03:07:29;50.83;;;27.00;;
84523;SDS011;74765;44.538;18.668;2024-02-23T03:09:55;38.15;;;19.77;;
84523;SDS011;74765;44.538;18.668;2024-02-23T03:12:20;51.42;;;26.20;;
84523;SDS011;74765;44.538;18.668;2024-02-23T03:14:46;58.22;;;30.33;;
84523;SDS011;74765;44.538;18.668;2024-02-23T03:17:12;52.03;;;25.35;;
84523;SDS011;74765;44.538;18.668;2024-02-23T03:19:38;28.02;;;14.25;;
84523;SDS011;74765;44.538;18.668;2024-02-23T03:22:04;35.63;;;18.92;;
84523;SDS011;74765;44.538;18.668;2024-02-23T03:24:30;49.33;;;24.40;;
84523;SDS011;74765;44.538;18.668;2024-02-23T03:26:56;37.95;;;18.92;;
84523;SDS011;74765;44.538;18.668;2024-02-23T03:29:22;45.80;;;21.13;;
84523;SDS011;74765;44.538;18.668;2024-02-23T03:31:57;46.22;;;23.55;;
84523;SDS011;74765;44.538;18.668;2024-02-23T03:34:23;36.90;;;20.15;;
84523;SDS011;74765;44.538;18.668;2024-02-23T03:36:49;20.35;;;10.50;;
84523;SDS011;74765;44.538;18.668;2024-02-23T03:39:14;15.27;;;8.00;;
84523;SDS011;74765;44.538;18.668;2024-02-23T03:41:40;14.52;;;9.25;;
84523;SDS011;74765;44.538;18.668;2024-02-23T03:44:06;23.05;;;13.63;;
84523;SDS011;74765;44.538;18.668;2024-02-23T03:46:32;18.92;;;9.90;;
84523;SDS011;74765;44.538;18.668;2024-02-23T03:48:58;21.73;;;12.00;;
84523;SDS011;74765;44.538;18.668;2024-02-23T03:51:24;18.48;;;10.00;;
84523;SDS011;74765;44.538;18.668;2024-02-23T03:53:49;14.15;;;8.73;;
84523;SDS011;74765;44.538;18.668;2024-02-23T03:56:15;17.35;;;9.88;;
84523;SDS011;74765;44.538;18.668;2024-02-23T03:58:41;17.83;;;10.70;;
84523;SDS011;74765;44.538;18.668;2024-02-23T04:01:07;15.35;;;9.05;;
84523;SDS011;74765;44.538;18.668;2024-02-23T04:03:33;15.82;;;8.65;;
84523;SDS011;74765;44.538;18.668;2024-02-23T04:05:59;13.05;;;8.07;;
84523;SDS011;74765;44.538;18.668;2024-02-23T04:08:25;12.32;;;7.53;;
84523;SDS011;74765;44.538;18.668;2024-02-23T04:10:51;9.90;;;6.28;;
84523;SDS011;74765;44.538;18.668;2024-02-23T04:13:17;11.20;;;6.63;;
84523;SDS011;74765;44.538;18.668;2024-02-23T04:15:43;11.93;;;6.97;;
84523;SDS011;74765;44.538;18.668;2024-02-23T04:18:09;8.77;;;5.57;;
84523;SDS011;74765;44.538;18.668;2024-02-23T04:20:35;9.48;;;5.70;;
84523;SDS011;74765;44.538;18.668;2024-02-23T04:23:01;9.45;;;6.63;;
84523;SDS011;74765;44.538;18.668;2024-02-23T04:25:27;8.07;;;5.68;;
84523;SDS011;74765;44.538;18.668;2024-02-23T04:27:54;13.75;;;7.43;;
84523;SDS011;74765;44.538;18.668;2024-02-23T04:30:19;7.30;;;4.80;;
84523;SDS011;74765;44.538;18.668;2024-02-23T04:32:45;17.40;;;9.40;;
84523;SDS011;74765;44.538;18.668;2024-02-23T04:35:11;7.10;;;4.38;;
84523;SDS011;74765;44.538;18.668;2024-02-23T04:37:37;12.45;;;6.55;;
84523;SDS011;74765;44.538;18.668;2024-02-23T04:40:03;12.20;;;6.65;;
84523;SDS011;74765;44.538;18.668;2024-02-23T04:42:30;10.35;;;5.75;;
84523;SDS011;74765;44.538;18.668;2024-02-23T04:44:56;10.38;;;6.78;;
84523;SDS011;74765;44.538;18.668;2024-02-23T04:47:22;8.60;;;5.57;;
84523;SDS011;74765;44.538;18.668;2024-02-23T04:49:48;9.07;;;6.03;;
84523;SDS011;74765;44.538;18.668;2024-02-23T04:52:14;10.18;;;5.85;;
84523;SDS011;74765;44.538;18.668;2024-02-23T04:54:40;19.27;;;7.07;;
84523;SDS011;74765;44.538;18.668;2024-02-23T04:57:06;6.45;;;4.38;;
84523;SDS011;74765;44.538;18.668;2024-02-23T04:59:32;5.70;;;4.50;;
84523;SDS011;74765;44.538;18.668;2024-02-23T05:01:58;8.20;;;5.10;;
84523;SDS011;74765;44.538;18.668;2024-02-23T05:04:24;7.95;;;4.97;;
84523;SDS011;74765;44.538;18.668;2024-02-23T05:06:53;8.15;;;5.28;;
84523;SDS011;74765;44.538;18.668;2024-02-23T05:09:19;7.95;;;5.20;;
84523;SDS011;74765;44.538;18.668;2024-02-23T05:11:45;9.57;;;6.03;;
84523;SDS011;74765;44.538;18.668;2024-02-23T05:14:12;6.22;;;4.20;;
84523;SDS011;74765;44.538;18.668;2024-02-23T05:16:38;9.85;;;5.60;;
84523;SDS011;74765;44.538;18.668;2024-02-23T05:19:04;11.50;;;6.55;;
84523;SDS011;74765;44.538;18.668;2024-02-23T05:21:30;12.32;;;7.80;;
84523;SDS011;74765;44.538;18.668;2024-02-23T05:23:56;16.48;;;8.90;;
84523;SDS011;74765;44.538;18.668;2024-02-23T05:26:22;19.23;;;10.07;;
84523;SDS011;74765;44.538;18.668;2024-02-23T05:28:48;17.67;;;8.75;;
84523;SDS011;74765;44.538;18.668;2024-02-23T05:31:14;20.60;;;9.30;;
84523;SDS011;74765;44.538;18.668;2024-02-23T05:33:40;26.48;;;10.57;;
84523;SDS011;74765;44.538;18.668;2024-02-23T05:36:06;19.75;;;10.10;;
84523;SDS011;74765;44.538;18.668;2024-02-23T05:38:32;19.20;;;10.93;;
84523;SDS011;74765;44.538;18.668;2024-02-23T05:40:58;24.00;;;12.00;;
84523;SDS011;74765;44.538;18.668;2024-02-23T05:43:24;25.60;;;12.95;;
84523;SDS011;74765;44.538;18.668;2024-02-23T05:45:50;30.75;;;15.18;;
84523;SDS011;74765;44.538;18.668;2024-02-23T05:48:15;25.20;;;11.60;;
84523;SDS011;74765;44.538;18.668;2024-02-23T05:50:41;27.42;;;13.13;;
84523;SDS011;74765;44.538;18.668;2024-02-23T05:53:07;33.97;;;18.88;;
84523;SDS011;74765;44.538;18.668;2024-02-23T05:55:32;39.08;;;18.88;;
84523;SDS011;74765;44.538;18.668;2024-02-23T05:57:59;38.00;;;17.05;;
84523;SDS011;74765;44.538;18.668;2024-02-23T06:00:25;39.33;;;17.92;;
84523;SDS011;74765;44.538;18.668;2024-02-23T06:02:50;25.67;;;14.57;;
84523;SDS011;74765;44.538;18.668;2024-02-23T06:05:16;36.70;;;19.25;;
84523;SDS011;74765;44.538;18.668;2024-02-23T06:07:42;56.33;;;28.05;;
84523;SDS011;74765;44.538;18.668;2024-02-23T06:10:08;58.38;;;25.33;;
84523;SDS011;74765;44.538;18.668;2024-02-23T06:12:34;75.10;;;34.28;;
84523;SDS011;74765;44.538;18.668;2024-02-23T06:15:04;65.97;;;27.92;;
84523;SDS011;74765;44.538;18.668;2024-02-23T06:17:34;40.63;;;21.15;;
84523;SDS011;74765;44.538;18.668;2024-02-23T06:20:00;58.05;;;28.85;;
84523;SDS011;74765;44.538;18.668;2024-02-23T06:22:33;78.53;;;38.50;;
84523;SDS011;74765;44.538;18.668;2024-02-23T06:25:00;69.68;;;33.92;;
84523;SDS011;74765;44.538;18.668;2024-02-23T06:27:29;47.28;;;23.15;;
84523;SDS011;74765;44.538;18.668;2024-02-23T06:29:55;38.30;;;19.70;;
84523;SDS011;74765;44.538;18.668;2024-02-23T06:32:21;59.47;;;30.30;;
84523;SDS011;74765;44.538;18.668;2024-02-23T06:34:47;44.60;;;21.38;;
84523;SDS011;74765;44.538;18.668;2024-02-23T06:37:14;29.83;;;17.15;;
84523;SDS011;74765;44.538;18.668;2024-02-23T06:39:42;71.20;;;29.20;;
84523;SDS011;74765;44.538;18.668;2024-02-23T06:42:09;48.05;;;22.75;;
84523;SDS011;74765;44.538;18.668;2024-02-23T06:44:35;52.63;;;23.13;;
84523;SDS011;74765;44.538;18.668;2024-02-23T06:47:01;47.88;;;22.70;;
84523;SDS011;74765;44.538;18.668;2024-02-23T06:49:27;43.05;;;21.60;;
84523;SDS011;74765;44.538;18.668;2024-02-23T06:51:53;39.95;;;20.88;;
84523;SDS011;74765;44.538;18.668;2024-02-23T06:54:19;29.23;;;15.55;;
84523;SDS011;74765;44.538;18.668;2024-02-23T06:56:45;23.20;;;11.93;;
84523;SDS011;74765;44.538;18.668;2024-02-23T06:59:11;19.70;;;12.18;;
84523;SDS011;74765;44.538;18.668;2024-02-23T07:01:47;16.23;;;9.02;;
84523;SDS011;74765;44.538;18.668;2024-02-23T07:04:14;17.40;;;9.88;;
84523;SDS011;74765;44.538;18.668;2024-02-23T07:06:42;14.07;;;8.93;;
84523;SDS011;74765;44.538;18.668;2024-02-23T07:09:09;16.92;;;9.02;;
84523;SDS011;74765;44.538;18.668;2024-02-23T07:11:37;16.45;;;9.52;;
84523;SDS011;74765;44.538;18.668;2024-02-23T07:14:04;15.32;;;9.02;;
84523;SDS011;74765;44.538;18.668;2024-02-23T07:16:30;14.07;;;7.85;;
84523;SDS011;74765;44.538;18.668;2024-02-23T07:19:00;18.13;;;10.50;;
84523;SDS011;74765;44.538;18.668;2024-02-23T07:21:32;15.57;;;8.85;;
84523;SDS011;74765;44.538;18.668;2024-02-23T07:24:03;22.33;;;10.83;;
84523;SDS011;74765;44.538;18.668;2024-02-23T07:26:47;21.65;;;10.60;;
84523;SDS011;74765;44.538;18.668;2024-02-23T07:29:16;23.15;;;11.45;;
84523;SDS011;74765;44.538;18.668;2024-02-23T07:31:59;28.40;;;12.95;;
84523;SDS011;74765;44.538;18.668;2024-02-23T07:34:31;35.50;;;16.00;;
84523;SDS011;74765;44.538;18.668;2024-02-23T07:36:57;33.15;;;13.95;;
84523;SDS011;74765;44.538;18.668;2024-02-23T07:39:23;35.42;;;14.23;;
84523;SDS011;74765;44.538;18.668;2024-02-23T07:41:52;26.75;;;13.38;;
84523;SDS011;74765;44.538;18.668;2024-02-23T07:44:21;37.72;;;15.88;;
84523;SDS011;74765;44.538;18.668;2024-02-23T07:46:53;32.47;;;16.65;;
84523;SDS011;74765;44.538;18.668;2024-02-23T07:49:21;40.25;;;19.38;;
84523;SDS011;74765;44.538;18.668;2024-02-23T07:51:47;30.60;;;15.82;;
84523;SDS011;74765;44.538;18.668;2024-02-23T07:54:14;27.42;;;14.43;;
84523;SDS011;74765;44.538;18.668;2024-02-23T07:56:39;24.98;;;12.77;;
84523;SDS011;74765;44.538;18.668;2024-02-23T07:59:05;33.33;;;15.88;;
84523;SDS011;74765;44.538;18.668;2024-02-23T08:01:31;37.53;;;18.20;;
84523;SDS011;74765;44.538;18.668;2024-02-23T08:03:59;35.60;;;16.75;;
84523;SDS011;74765;44.538;18.668;2024-02-23T08:06:25;37.58;;;17.52;;
84523;SDS011;74765;44.538;18.668;2024-02-23T08:08:54;35.30;;;16.67;;
84523;SDS011;74765;44.538;18.668;2024-02-23T08:11:20;30.02;;;14.88;;
84523;SDS011;74765;44.538;18.668;2024-02-23T08:16:16;20.92;;;10.25;;
84523;SDS011;74765;44.538;18.668;2024-02-23T08:18:42;17.15;;;8.48;;
84523;SDS011;74765;44.538;18.668;2024-02-23T08:21:09;11.32;;;6.72;;
84523;SDS011;74765;44.538;18.668;2024-02-23T08:23:36;13.05;;;5.72;;
84523;SDS011;74765;44.538;18.668;2024-02-23T08:26:02;8.32;;;4.88;;
84523;SDS011;74765;44.538;18.668;2024-02-23T08:28:28;12.20;;;6.40;;
84523;SDS011;74765;44.538;18.668;2024-02-23T08:30:54;9.77;;;6.70;;
84523;SDS011;74765;44.538;18.668;2024-02-23T08:33:21;16.02;;;9.85;;
84523;SDS011;74765;44.538;18.668;2024-02-23T08:35:47;13.32;;;8.85;;
84523;SDS011;74765;44.538;18.668;2024-02-23T08:38:14;15.95;;;8.13;;
84523;SDS011;74765;44.538;18.668;2024-02-23T08:40:40;9.43;;;6.07;;
84523;SDS011;74765;44.538;18.668;2024-02-23T08:43:07;9.90;;;6.63;;
84523;SDS011;74765;44.538;18.668;2024-02-23T08:45:35;9.70;;;6.65;;
84523;SDS011;74765;44.538;18.668;2024-02-23T08:48:33;15.43;;;7.03;;
84523;SDS011;74765;44.538;18.668;2024-02-23T08:50:59;11.18;;;7.70;;
84523;SDS011;74765;44.538;18.668;2024-02-23T08:53:38;12.87;;;8.20;;
84523;SDS011;74765;44.538;18.668;2024-02-23T08:56:06;9.53;;;6.30;;
84523;SDS011;74765;44.538;18.668;2024-02-23T08:58:33;19.90;;;7.60;;
84523;SDS011;74765;44.538;18.668;2024-02-23T09:00:59;9.93;;;6.85;;
84523;SDS011;74765;44.538;18.668;2024-02-23T09:03:25;9.27;;;5.85;;
84523;SDS011;74765;44.538;18.668;2024-02-23T09:05:51;11.15;;;7.75;;
84523;SDS011;74765;44.538;18.668;2024-02-23T09:08:17;11.32;;;7.43;;
84523;SDS011;74765;44.538;18.668;2024-02-23T09:10:43;11.15;;;7.78;;
84523;SDS011;74765;44.538;18.668;2024-02-23T09:13:12;11.30;;;7.70;;
84523;SDS011;74765;44.538;18.668;2024-02-23T09:15:42;13.18;;;7.38;;
84523;SDS011;74765;44.538;18.668;2024-02-23T09:18:08;14.05;;;7.28;;
84523;SDS011;74765;44.538;18.668;2024-02-23T09:20:34;9.75;;;6.40;;
84523;SDS011;74765;44.538;18.668;2024-02-23T09:23:00;10.68;;;6.60;;
84523;SDS011;74765;44.538;18.668;2024-02-23T09:25:26;11.00;;;6.55;;
84523;SDS011;74765;44.538;18.668;2024-02-23T09:27:51;11.52;;;6.82;;
84523;SDS011;74765;44.538;18.668;2024-02-23T09:30:17;12.73;;;7.35;;
84523;SDS011;74765;44.538;18.668;2024-02-23T09:32:45;12.23;;;7.43;;
84523;SDS011;74765;44.538;18.668;2024-02-23T09:35:10;15.00;;;7.45;;
84523;SDS011;74765;44.538;18.668;2024-02-23T09:37:36;13.43;;;7.70;;
84523;SDS011;74765;44.538;18.668;2024-02-23T09:40:03;19.05;;;11.52;;
84523;SDS011;74765;44.538;18.668;2024-02-23T09:42:29;17.13;;;9.25;;
84523;SDS011;74765;44.538;18.668;2024-02-23T09:44:58;14.88;;;8.48;;
84523;SDS011;74765;44.538;18.668;2024-02-23T09:47:28;15.82;;;8.70;;
84523;SDS011;74765;44.538;18.668;2024-02-23T09:49:54;9.93;;;6.68;;
84523;SDS011;74765;44.538;18.668;2024-02-23T09:52:21;11.18;;;7.30;;
84523;SDS011;74765;44.538;18.668;2024-02-23T09:54:48;13.90;;;8.07;;
84523;SDS011;74765;44.538;18.668;2024-02-23T09:57:14;15.70;;;9.93;;
84523;SDS011;74765;44.538;18.668;2024-02-23T09:59:41;14.98;;;9.95;;
84523;SDS011;74765;44.538;18.668;2024-02-23T10:02:13;19.98;;;11.13;;
84523;SDS011;74765;44.538;18.668;2024-02-23T10:04:41;15.05;;;9.13;;
84523;SDS011;74765;44.538;18.668;2024-02-23T10:07:14;10.48;;;6.60;;
84523;SDS011;74765;44.538;18.668;2024-02-23T10:09:44;8.75;;;6.22;;
84523;SDS011;74765;44.538;18.668;2024-02-23T10:12:10;10.23;;;6.13;;
84523;SDS011;74765;44.538;18.668;2024-02-23T10:14:36;11.52;;;7.30;;
84523;SDS011;74765;44.538;18.668;2024-02-23T10:17:02;12.68;;;6.63;;
84523;SDS011;74765;44.538;18.668;2024-02-23T10:19:33;12.43;;;6.15;;
84523;SDS011;74765;44.538;18.668;2024-02-23T10:22:04;9.10;;;6.30;;
84523;SDS011;74765;44.538;18.668;2024-02-23T10:24:41;10.93;;;6.40;;
84523;SDS011;74765;44.538;18.668;2024-02-23T10:27:08;8.90;;;5.25;;
84523;SDS011;74765;44.538;18.668;2024-02-23T10:29:37;8.13;;;6.00;;
84523;SDS011;74765;44.538;18.668;2024-02-23T10:32:03;9.63;;;5.88;;
84523;SDS011;74765;44.538;18.668;2024-02-23T10:34:41;10.00;;;6.03;;
84523;SDS011;74765;44.538;18.668;2024-02-23T10:37:43;11.13;;;8.27;;
84523;SDS011;74765;44.538;18.668;2024-02-23T10:40:19;11.98;;;6.57;;
84523;SDS011;74765;44.538;18.668;2024-02-23T10:42:48;7.85;;;5.70;;
84523;SDS011;74765;44.538;18.668;2024-02-23T10:45:21;11.35;;;6.90;;
84523;SDS011;74765;44.538;18.668;2024-02-23T10:47:50;16.17;;;10.05;;
84523;SDS011;74765;44.538;18.668;2024-02-23T10:50:17;12.95;;;9.48;;
84523;SDS011;74765;44.538;18.668;2024-02-23T10:52:45;14.23;;;8.43;;
84523;SDS011;74765;44.538;18.668;2024-02-23T10:55:20;22.85;;;12.38;;
84523;SDS011;74765;44.538;18.668;2024-02-23T10:57:48;12.98;;;7.65;;
84523;SDS011;74765;44.538;18.668;2024-02-23T11:00:17;15.07;;;6.90;;
84523;SDS011;74765;44.538;18.668;2024-02-23T11:02:49;13.20;;;6.70;;
84523;SDS011;74765;44.538;18.668;2024-02-23T11:05:22;16.58;;;8.75;;
84523;SDS011;74765;44.538;18.668;2024-02-23T11:07:49;20.55;;;10.85;;
84523;SDS011;74765;44.538;18.668;2024-02-23T11:10:17;28.70;;;14.43;;
84523;SDS011;74765;44.538;18.668;2024-02-23T11:12:44;41.25;;;20.25;;
84523;SDS011;74765;44.538;18.668;2024-02-23T11:15:29;54.35;;;24.02;;
84523;SDS011;74765;44.538;18.668;2024-02-23T11:17:57;89.57;;;44.10;;
84523;SDS011;74765;44.538;18.668;2024-02-23T11:20:23;50.03;;;26.17;;
84523;SDS011;74765;44.538;18.668;2024-02-23T11:22:53;45.30;;;23.27;;
84523;SDS011;74765;44.538;18.668;2024-02-23T11:25:19;24.98;;;14.55;;
84523;SDS011;74765;44.538;18.668;2024-02-23T11:27:49;41.35;;;22.52;;
84523;SDS011;74765;44.538;18.668;2024-02-23T11:30:16;37.08;;;21.25;;
84523;SDS011;74765;44.538;18.668;2024-02-23T11:32:44;33.55;;;19.67;;
84523;SDS011;74765;44.538;18.668;2024-02-23T11:35:15;33.10;;;20.02;;
84523;SDS011;74765;44.538;18.668;2024-02-23T11:37:53;34.58;;;19.55;;
84523;SDS011;74765;44.538;18.668;2024-02-23T11:40:29;50.15;;;26.38;;
84523;SDS011;74765;44.538;18.668;2024-02-23T11:42:55;53.00;;;27.55;;
84523;SDS011;74765;44.538;18.668;2024-02-23T11:45:22;76.28;;;40.83;;
84523;SDS011;74765;44.538;18.668;2024-02-23T11:47:50;71.32;;;35.78;;
84523;SDS011;74765;44.538;18.668;2024-02-23T11:50:17;90.95;;;45.53;;
84523;SDS011;74765;44.538;18.668;2024-02-23T11:52:46;67.35;;;34.58;;
84523;SDS011;74765;44.538;18.668;2024-02-23T11:55:12;85.40;;;40.63;;
84523;SDS011;74765;44.538;18.668;2024-02-23T11:57:39;90.22;;;41.10;;
84523;SDS011;74765;44.538;18.668;2024-02-23T12:00:05;58.28;;;29.05;;
84523;SDS011;74765;44.538;18.668;2024-02-23T12:02:32;78.18;;;37.53;;
84523;SDS011;74765;44.538;18.668;2024-02-23T12:05:00;59.90;;;31.20;;
84523;SDS011;74765;44.538;18.668;2024-02-23T12:07:29;27.80;;;16.63;;
84523;SDS011;74765;44.538;18.668;2024-02-23T12:09:56;30.15;;;16.38;;
84523;SDS011;74765;44.538;18.668;2024-02-23T12:12:28;36.90;;;18.75;;
84523;SDS011;74765;44.538;18.668;2024-02-23T12:15:12;25.05;;;15.10;;
84523;SDS011;74765;44.538;18.668;2024-02-23T12:17:46;21.13;;;12.15;;
84523;SDS011;74765;44.538;18.668;2024-02-23T12:20:35;21.45;;;12.70;;
84523;SDS011;74765;44.538;18.668;2024-02-23T12:23:01;29.75;;;15.23;;
84523;SDS011;74765;44.538;18.668;2024-02-23T12:25:27;33.45;;;16.85;;
84523;SDS011;74765;44.538;18.668;2024-02-23T12:27:56;35.28;;;18.20;;
84523;SDS011;74765;44.538;18.668;2024-02-23T12:30:23;24.98;;;14.10;;
84523;SDS011;74765;44.538;18.668;2024-02-23T12:32:49;37.08;;;18.38;;
84523;SDS011;74765;44.538;18.668;2024-02-23T12:35:15;37.38;;;20.77;;
84523;SDS011;74765;44.538;18.668;2024-02-23T12:37:42;40.65;;;20.70;;
84523;SDS011;74765;44.538;18.668;2024-02-23T12:40:15;32.58;;;18.00;;
84523;SDS011;74765;44.538;18.668;2024-02-23T12:42:41;46.38;;;22.42;;
84523;SDS011;74765;44.538;18.668;2024-02-23T12:45:08;33.50;;;18.38;;
84523;SDS011;74765;44.538;18.668;2024-02-23T12:47:34;43.53;;;23.00;;
84523;SDS011;74765;44.538;18.668;2024-02-23T12:50:00;54.30;;;25.50;;
84523;SDS011;74765;44.538;18.668;2024-02-23T12:52:26;68.82;;;33.78;;
84523;SDS011;74765;44.538;18.668;2024-02-23T12:55:00;46.03;;;26.25;;
84523;SDS011;74765;44.538;18.668;2024-02-23T12:57:47;55.80;;;33.20;;
84523;SDS011;74765;44.538;18.668;2024-02-23T13:00:13;34.50;;;18.33;;
84523;SDS011;74765;44.538;18.668;2024-02-23T13:02:40;75.25;;;36.75;;
84523;SDS011;74765;44.538;18.668;2024-02-23T13:05:06;50.78;;;28.25;;
84523;SDS011;74765;44.538;18.668;2024-02-23T13:07:32;39.05;;;21.50;;
84523;SDS011;74765;44.538;18.668;2024-02-23T13:09:58;46.53;;;25.80;;
84523;SDS011;74765;44.538;18.668;2024-02-23T13:12:24;63.78;;;34.08;;
84523;SDS011;74765;44.538;18.668;2024-02-23T13:14:52;72.63;;;38.30;;
84523;SDS011;74765;44.538;18.668;2024-02-23T13:17:21;71.53;;;36.73;;
84523;SDS011;74765;44.538;18.668;2024-02-23T13:19:50;80.07;;;41.47;;
84523;SDS011;74765;44.538;18.668;2024-02-23T13:22:22;84.93;;;41.60;;
84523;SDS011;74765;44.538;18.668;2024-02-23T13:25:01;80.85;;;41.22;;
84523;SDS011;74765;44.538;18.668;2024-02-23T13:27:31;73.78;;;38.63;;
84523;SDS011;74765;44.538;18.668;2024-02-23T13:29:57;65.20;;;33.78;;
84523;SDS011;74765;44.538;18.668;2024-02-23T13:32:25;82.80;;;40.25;;
84523;SDS011;74765;44.538;18.668;2024-02-23T13:34:51;56.28;;;27.38;;
84523;SDS011;74765;44.538;18.668;2024-02-23T13:37:21;35.15;;;17.92;;
84523;SDS011;74765;44.538;18.668;2024-02-23T13:39:46;34.80;;;16.90;;
84523;SDS011;74765;44.538;18.668;2024-02-23T13:42:13;30.58;;;15.05;;
84523;SDS011;74765;44.538;18.668;2024-02-23T13:44:39;49.42;;;20.90;;
84523;SDS011;74765;44.538;18.668;2024-02-23T13:47:08;26.88;;;14.43;;
84523;SDS011;74765;44.538;18.668;2024-02-23T13:49:36;24.40;;;13.20;;
84523;SDS011;74765;44.538;18.668;2024-02-23T13:52:02;24.45;;;12.88;;
84523;SDS011;74765;44.538;18.668;2024-02-23T13:54:28;30.75;;;15.80;;
84523;SDS011;74765;44.538;18.668;2024-02-23T13:56:54;26.40;;;13.38;;
84523;SDS011;74765;44.538;18.668;2024-02-23T13:59:23;30.98;;;15.50;;
84523;SDS011;74765;44.538;18.668;2024-02-23T14:01:50;27.80;;;13.40;;
84523;SDS011;74765;44.538;18.668;2024-02-23T14:04:16;29.65;;;13.40;;
84523;SDS011;74765;44.538;18.668;2024-02-23T14:06:42;15.70;;;8.55;;
84523;SDS011;74765;44.538;18.668;2024-02-23T14:09:08;16.48;;;8.00;;
84523;SDS011;74765;44.538;18.668;2024-02-23T14:11:35;15.50;;;8.43;;
84523;SDS011;74765;44.538;18.668;2024-02-23T14:14:01;23.52;;;10.45;;
84523;SDS011;74765;44.538;18.668;2024-02-23T14:16:30;17.83;;;9.70;;
84523;SDS011;74765;44.538;18.668;2024-02-23T14:18:56;14.77;;;8.98;;